createdAt,value
2022-12-24T00:00:12.329Z,7.40
2022-12-24T00:02:39.453Z,7.40
2022-12-24T00:05:06.624Z,7.50
2022-12-24T00:07:33.227Z,7.60
2022-12-24T00:09:59.755Z,7.50
2022-12-24T00:12:26.312Z,7.60
2022-12-24T00:14:52.829Z,7.50
2022-12-24T00:17:19.411Z,7.30
2022-12-24T00:19:45.964Z,7.20
2022-12-24T00:22:12.577Z,7.20
2022-12-24T00:24:39.170Z,7.40
2022-12-24T00:27:06.054Z,7.20
2022-12-24T00:29:33.601Z,7.10
2022-12-24T00:32:00.451Z,7.20
2022-12-24T00:34:27.342Z,7.10
2022-12-24T00:36:53.893Z,6.90
2022-12-24T00:39:20.398Z,6.90
2022-12-24T00:41:46.952Z,7.00
2022-12-24T00:44:13.510Z,7.10
2022-12-24T00:46:41.343Z,7.10
2022-12-24T00:49:09.369Z,7.10
2022-12-24T00:51:37.112Z,7.00
2022-12-24T00:54:04.442Z,7.00
2022-12-24T00:56:31.007Z,7.10
2022-12-24T00:58:57.878Z,7.00
2022-12-24T01:01:25.011Z,7.10
2022-12-24T01:03:52.092Z,7.00
2022-12-24T01:06:21.298Z,7.10
2022-12-24T01:08:51.353Z,7.20
2022-12-24T01:11:20.600Z,7.30
2022-12-24T01:13:47.250Z,7.40
2022-12-24T01:16:19.705Z,7.30
2022-12-24T01:18:46.475Z,7.40
2022-12-24T01:21:13.035Z,7.40
2022-12-24T01:23:39.562Z,7.40
2022-12-24T01:26:06.202Z,7.10
2022-12-24T01:28:33.175Z,7.00
2022-12-24T01:30:59.800Z,7.00
2022-12-24T01:33:30.119Z,6.90
2022-12-24T01:35:56.732Z,6.90
2022-12-24T01:38:23.270Z,7.00
2022-12-24T01:41:08.226Z,7.10
2022-12-24T01:43:34.809Z,7.00
2022-12-24T01:46:04.986Z,6.80
2022-12-24T01:48:44.644Z,6.80
2022-12-24T01:51:19.619Z,7.00
2022-12-24T01:53:52.400Z,6.90
2022-12-24T01:56:19.808Z,7.10
2022-12-24T01:58:48.730Z,7.00
2022-12-24T02:01:15.456Z,7.20
2022-12-24T02:03:42.173Z,7.00
2022-12-24T02:06:09.452Z,7.10
2022-12-24T02:08:41.546Z,7.20
2022-12-24T02:11:12.145Z,7.00
2022-12-24T02:13:39.135Z,7.10
2022-12-24T02:16:19.521Z,7.10
2022-12-24T02:19:04.656Z,7.00
2022-12-24T02:21:46.659Z,7.30
2022-12-24T02:24:21.700Z,7.00
2022-12-24T02:27:12.675Z,7.10
2022-12-24T02:30:16.086Z,7.20
2022-12-24T02:33:04.036Z,6.90
2022-12-24T02:36:02.408Z,6.90
2022-12-24T02:38:45.652Z,6.90
2022-12-24T02:41:20.483Z,6.80
2022-12-24T02:43:48.657Z,6.80
2022-12-24T02:46:22.452Z,6.70
2022-12-24T02:48:49.649Z,6.90
2022-12-24T02:51:16.599Z,6.90
2022-12-24T02:53:43.144Z,6.90
2022-12-24T02:56:30.155Z,7.00
2022-12-24T02:59:23.019Z,7.10
2022-12-24T03:02:31.241Z,7.30
2022-12-24T03:05:18.903Z,7.20
2022-12-24T03:08:07.534Z,7.20
2022-12-24T03:10:56.636Z,7.00
2022-12-24T03:13:23.228Z,7.00
2022-12-24T03:15:50.445Z,6.80
2022-12-24T03:18:25.388Z,6.80
2022-12-24T03:21:00.657Z,6.80
2022-12-24T03:23:27.375Z,6.80
2022-12-24T03:25:54.171Z,6.80
2022-12-24T03:28:24.854Z,7.10
2022-12-24T03:30:51.535Z,7.10
2022-12-24T03:33:18.190Z,6.90
2022-12-24T03:35:45.005Z,7.10
2022-12-24T03:38:11.596Z,7.10
2022-12-24T03:40:38.177Z,7.00
2022-12-24T03:43:04.784Z,6.90
2022-12-24T03:45:31.328Z,7.20
2022-12-24T03:47:57.843Z,7.40
2022-12-24T03:50:24.361Z,7.30
2022-12-24T03:52:50.861Z,7.30
2022-12-24T03:55:17.432Z,7.30
2022-12-24T03:57:43.944Z,7.30
2022-12-24T04:00:10.984Z,7.10
2022-12-24T04:02:40.816Z,7.30
2022-12-24T04:05:08.757Z,7.30
2022-12-24T04:07:35.314Z,7.30
2022-12-24T04:10:01.846Z,7.30
2022-12-24T04:12:28.326Z,7.30
2022-12-24T04:14:54.865Z,7.40
2022-12-24T04:17:21.389Z,7.60
2022-12-24T04:19:47.949Z,7.60
2022-12-24T04:22:14.475Z,7.60
2022-12-24T04:24:41.001Z,7.70
2022-12-24T04:27:07.586Z,7.80
2022-12-24T04:29:34.193Z,7.90
2022-12-24T04:32:00.902Z,7.80
2022-12-24T04:34:27.834Z,7.90
2022-12-24T04:36:54.349Z,8.00
2022-12-24T04:39:20.907Z,7.70
2022-12-24T04:41:47.536Z,7.90
2022-12-24T04:44:14.066Z,8.10
2022-12-24T04:46:42.199Z,8.40
2022-12-24T04:49:08.750Z,8.30
2022-12-24T04:51:35.386Z,8.30
2022-12-24T04:54:01.900Z,8.50
2022-12-24T04:56:31.050Z,8.30
2022-12-24T04:58:59.312Z,8.40
2022-12-24T05:01:29.450Z,8.30
2022-12-24T05:03:56.611Z,8.30
2022-12-24T05:06:29.717Z,8.30
2022-12-24T05:08:57.740Z,8.50
2022-12-24T05:11:24.863Z,8.20
2022-12-24T05:13:51.692Z,8.20
2022-12-24T05:16:20.186Z,8.40
2022-12-24T05:18:46.786Z,8.50
2022-12-24T05:21:18.748Z,8.50
2022-12-24T05:24:03.933Z,8.60
2022-12-24T05:26:31.906Z,8.70
2022-12-24T05:28:59.575Z,8.70
2022-12-24T05:31:27.881Z,8.70
2022-12-24T05:33:54.860Z,8.50
2022-12-24T05:36:22.402Z,8.40
2022-12-24T05:38:49.041Z,8.50
2022-12-24T05:41:15.625Z,8.40
2022-12-24T05:43:42.491Z,8.50
2022-12-24T05:46:10.916Z,8.60
2022-12-24T05:48:37.472Z,8.60
2022-12-24T05:51:06.128Z,8.50
2022-12-24T05:53:33.275Z,8.30
2022-12-24T05:56:08.195Z,8.00
2022-12-24T05:58:34.901Z,8.20
2022-12-24T06:01:03.025Z,8.20
2022-12-24T06:03:30.386Z,8.30
2022-12-24T06:06:21.424Z,8.30
2022-12-24T06:08:48.750Z,8.40
2022-12-24T06:11:17.830Z,8.40
2022-12-24T06:13:44.793Z,8.50
2022-12-24T06:16:14.570Z,8.60
2022-12-24T06:18:41.720Z,8.50
2022-12-24T06:21:08.646Z,8.50
2022-12-24T06:23:37.115Z,8.40
2022-12-24T06:26:04.766Z,8.60
2022-12-24T06:28:33.402Z,8.60
2022-12-24T06:31:03.220Z,8.60
2022-12-24T06:33:31.572Z,8.10
2022-12-24T06:35:58.228Z,7.60
2022-12-24T06:38:24.814Z,7.60
2022-12-24T06:40:51.634Z,7.40
2022-12-24T06:43:18.159Z,7.70
2022-12-24T06:45:46.217Z,7.90
2022-12-24T06:48:13.412Z,7.80
2022-12-24T06:50:40.281Z,7.70
2022-12-24T06:53:07.039Z,8.00
2022-12-24T06:55:33.590Z,8.00
2022-12-24T06:58:00.080Z,8.30
2022-12-24T07:00:26.621Z,8.40
2022-12-24T07:02:53.228Z,8.50
2022-12-24T07:05:19.759Z,8.60
2022-12-24T07:07:46.264Z,8.30
2022-12-24T07:10:15.135Z,8.40
2022-12-24T07:12:42.270Z,8.50
2022-12-24T07:15:09.878Z,8.60
2022-12-24T07:17:36.506Z,8.50
2022-12-24T07:20:03.944Z,8.60
2022-12-24T07:22:30.486Z,8.60
2022-12-24T07:24:57.017Z,8.60
2022-12-24T07:27:23.536Z,8.50
2022-12-24T07:29:50.035Z,8.30
2022-12-24T07:32:16.531Z,8.50
2022-12-24T07:34:43.054Z,8.70
2022-12-24T07:37:09.600Z,8.60
2022-12-24T07:39:36.122Z,8.50
2022-12-24T07:42:02.728Z,8.60
2022-12-24T07:44:29.204Z,8.70
2022-12-24T07:46:55.769Z,8.80
2022-12-24T07:49:22.390Z,8.80
2022-12-24T07:51:48.951Z,8.70
2022-12-24T07:54:15.503Z,8.80
2022-12-24T07:56:42.656Z,8.70
2022-12-24T07:59:12.784Z,8.70
2022-12-24T08:01:39.655Z,8.60
2022-12-24T08:04:06.927Z,8.40
2022-12-24T08:06:33.542Z,8.70
2022-12-24T08:09:00.164Z,8.80
2022-12-24T08:11:26.670Z,8.90
2022-12-24T08:13:53.322Z,8.80
2022-12-24T08:16:19.901Z,8.90
2022-12-24T08:18:46.438Z,8.70
2022-12-24T08:21:12.992Z,8.80
2022-12-24T08:23:39.485Z,8.80
2022-12-24T08:26:10.771Z,8.70
2022-12-24T08:28:37.485Z,8.60
2022-12-24T08:31:04.216Z,8.70
2022-12-24T08:33:32.186Z,8.90
2022-12-24T08:36:01.082Z,8.90
2022-12-24T08:38:27.581Z,8.70
2022-12-24T08:40:55.274Z,8.80
2022-12-24T08:43:22.379Z,8.70
2022-12-24T08:45:50.034Z,8.70
2022-12-24T08:48:17.045Z,8.70
2022-12-24T08:50:44.024Z,8.80
2022-12-24T08:53:11.324Z,9.00
2022-12-24T08:55:38.241Z,8.80
2022-12-24T08:58:05.526Z,8.60
2022-12-24T09:00:32.114Z,8.70
2022-12-24T09:02:58.760Z,8.40
2022-12-24T09:05:25.990Z,8.30
2022-12-24T09:07:52.913Z,8.40
2022-12-24T09:10:19.408Z,8.30
2022-12-24T09:12:45.892Z,8.60
2022-12-24T09:15:14.027Z,8.60
2022-12-24T09:17:40.607Z,8.10
2022-12-24T09:20:07.804Z,7.70
2022-12-24T09:22:35.614Z,8.00
2022-12-24T09:25:02.402Z,7.60
2022-12-24T09:27:31.221Z,7.50
2022-12-24T09:29:57.924Z,7.90
2022-12-24T09:32:24.584Z,8.10
2022-12-24T09:34:51.083Z,8.40
2022-12-24T09:37:17.653Z,8.60
2022-12-24T09:39:44.218Z,8.70
2022-12-24T09:42:32.445Z,8.70
2022-12-24T09:45:19.735Z,8.80
2022-12-24T09:47:59.322Z,8.90
2022-12-24T09:50:31.906Z,8.60
2022-12-24T09:53:01.293Z,8.20
2022-12-24T09:55:43.817Z,8.20
2022-12-24T09:58:20.586Z,8.50
2022-12-24T10:00:50.271Z,8.50
2022-12-24T10:03:17.950Z,8.60
2022-12-24T10:05:58.958Z,8.30
2022-12-24T10:08:36.320Z,8.50
2022-12-24T10:11:12.375Z,8.40
2022-12-24T10:13:49.114Z,8.70
2022-12-24T10:16:24.409Z,8.70
2022-12-24T10:19:00.949Z,8.90
2022-12-24T10:21:49.588Z,8.90
2022-12-24T10:24:25.785Z,9.10
2022-12-24T10:27:14.931Z,8.70
2022-12-24T10:29:48.060Z,8.80
2022-12-24T10:32:26.970Z,8.80
2022-12-24T10:35:29.835Z,8.90
2022-12-24T10:37:57.961Z,8.80
2022-12-24T10:40:51.195Z,8.80
2022-12-24T10:43:21.418Z,8.90
2022-12-24T10:45:52.831Z,9.10
2022-12-24T10:48:44.889Z,9.10
2022-12-24T10:51:37.796Z,9.30
2022-12-24T10:54:38.853Z,9.40
2022-12-24T10:57:07.144Z,9.50
2022-12-24T10:59:39.614Z,9.70
2022-12-24T11:02:42.360Z,9.60
2022-12-24T11:05:29.643Z,9.70
2022-12-24T11:08:17.348Z,9.50
2022-12-24T11:11:05.516Z,9.60
2022-12-24T11:13:37.875Z,9.40
2022-12-24T11:16:14.990Z,9.50
2022-12-24T11:18:52.124Z,9.70
2022-12-24T11:21:24.676Z,9.50
2022-12-24T11:23:57.688Z,9.30
2022-12-24T11:26:27.123Z,9.50
2022-12-24T11:29:13.895Z,9.60
2022-12-24T11:31:41.598Z,9.80
2022-12-24T11:34:26.500Z,9.80
2022-12-24T11:36:54.384Z,9.70
2022-12-24T11:39:25.621Z,9.70
2022-12-24T11:41:54.424Z,9.90
2022-12-24T11:44:27.902Z,9.90
2022-12-24T11:46:58.400Z,9.80
2022-12-24T11:49:30.034Z,10.00
2022-12-24T11:52:11.885Z,10.20
2022-12-24T11:55:05.020Z,10.20
2022-12-24T11:57:58.525Z,10.20
2022-12-24T12:00:25.604Z,10.10
2022-12-24T12:02:52.604Z,10.20
2022-12-24T12:05:23.015Z,10.10
2022-12-24T12:08:10.042Z,10.10
2022-12-24T12:10:39.761Z,10.20
2022-12-24T12:13:21.065Z,10.10
2022-12-24T12:15:51.979Z,10.10
2022-12-24T12:18:22.323Z,10.00
2022-12-24T12:20:52.986Z,10.20
2022-12-24T12:23:29.566Z,10.10
2022-12-24T12:26:13.176Z,10.10
2022-12-24T12:28:54.246Z,9.90
2022-12-24T12:31:26.094Z,10.10
2022-12-24T12:34:06.843Z,10.20
2022-12-24T12:36:42.315Z,10.30
2022-12-24T12:39:10.532Z,10.50
2022-12-24T12:41:49.309Z,10.30
2022-12-24T12:44:43.424Z,10.30
2022-12-24T12:47:13.051Z,10.40
2022-12-24T12:50:17.453Z,10.50
2022-12-24T12:52:50.251Z,10.50
2022-12-24T12:55:28.898Z,10.40
2022-12-24T12:58:00.197Z,10.10
2022-12-24T13:00:28.485Z,10.20
2022-12-24T13:03:07.297Z,10.30
2022-12-24T13:05:36.633Z,10.00
2022-12-24T13:08:21.918Z,9.70
2022-12-24T13:10:53.954Z,10.00
2022-12-24T13:13:45.733Z,9.90
2022-12-24T13:16:24.492Z,9.80
2022-12-24T13:19:09.083Z,9.50
2022-12-24T13:21:35.776Z,9.60
2022-12-24T13:24:07.345Z,9.50
2022-12-24T13:26:33.998Z,9.60
2022-12-24T13:29:31.364Z,9.90
2022-12-24T13:32:22.710Z,9.90
2022-12-24T13:34:49.199Z,10.10
2022-12-24T13:37:24.058Z,9.90
2022-12-24T13:40:06.079Z,10.10
2022-12-24T13:43:01.073Z,10.20
2022-12-24T13:45:30.629Z,10.30
2022-12-24T13:48:06.233Z,10.40
2022-12-24T13:50:37.420Z,10.40
2022-12-24T13:53:05.724Z,10.50
2022-12-24T13:55:32.931Z,10.60
2022-12-24T13:58:01.988Z,10.50
2022-12-24T14:00:40.834Z,10.60
2022-12-24T14:03:13.446Z,10.60
2022-12-24T14:05:48.201Z,10.60
2022-12-24T14:08:37.490Z,10.30
2022-12-24T14:11:08.971Z,10.10
2022-12-24T14:13:38.392Z,10.00
2022-12-24T14:16:28.661Z,9.90
2022-12-24T14:19:02.421Z,9.50
2022-12-24T14:21:33.241Z,9.40
2022-12-24T14:24:05.670Z,9.50
2022-12-24T14:26:35.371Z,9.60
2022-12-24T14:29:08.373Z,9.60
2022-12-24T14:31:34.913Z,9.70
2022-12-24T14:34:11.343Z,9.90
2022-12-24T14:36:38.408Z,9.90
2022-12-24T14:39:06.856Z,10.00
2022-12-24T14:41:41.173Z,10.00
2022-12-24T14:44:29.752Z,10.10
2022-12-24T14:47:28.994Z,10.00
2022-12-24T14:50:17.196Z,10.30
2022-12-24T14:53:05.447Z,10.20
2022-12-24T14:55:45.866Z,10.10
2022-12-24T14:58:28.712Z,10.10
2022-12-24T15:01:17.446Z,10.00
2022-12-24T15:03:44.479Z,9.80
2022-12-24T15:06:12.636Z,9.60
2022-12-24T15:08:41.944Z,9.50
2022-12-24T15:11:10.426Z,9.20
2022-12-24T15:13:39.151Z,9.00
2022-12-24T15:16:09.761Z,8.90
2022-12-24T15:18:39.562Z,8.90
2022-12-24T15:21:08.359Z,8.90
2022-12-24T15:23:36.829Z,8.70
2022-12-24T15:26:13.946Z,8.70
2022-12-24T15:28:40.560Z,8.70
2022-12-24T15:31:15.506Z,8.80
2022-12-24T15:33:45.998Z,8.80
2022-12-24T15:36:14.327Z,8.80
2022-12-24T15:38:43.368Z,8.60
2022-12-24T15:41:21.922Z,8.60
2022-12-24T15:43:50.104Z,8.60
2022-12-24T15:46:21.820Z,8.70
2022-12-24T15:48:48.998Z,8.70
2022-12-24T15:51:26.582Z,8.60
2022-12-24T15:54:00.903Z,8.60
2022-12-24T15:56:32.257Z,8.70
2022-12-24T15:59:19.715Z,8.70
2022-12-24T16:01:47.801Z,8.80
2022-12-24T16:04:22.293Z,8.70
2022-12-24T16:07:01.715Z,8.40
2022-12-24T16:09:45.572Z,8.30
2022-12-24T16:12:15.068Z,8.40
2022-12-24T16:14:45.925Z,8.40
2022-12-24T16:17:19.139Z,8.30
2022-12-24T16:19:51.109Z,8.20
2022-12-24T16:22:32.226Z,8.30
2022-12-24T16:25:17.741Z,8.30
2022-12-24T16:27:44.347Z,8.30
2022-12-24T16:30:12.561Z,8.30
2022-12-24T16:32:40.200Z,8.30
2022-12-24T16:35:11.245Z,8.40
2022-12-24T16:37:37.739Z,8.50
2022-12-24T16:40:04.517Z,8.70
2022-12-24T16:42:49.495Z,8.80
2022-12-24T16:45:16.068Z,8.80
2022-12-24T16:47:43.761Z,8.60
2022-12-24T16:50:16.243Z,8.60
2022-12-24T16:52:42.890Z,8.70
2022-12-24T16:55:13.028Z,9.00
2022-12-24T16:57:40.290Z,9.20
2022-12-24T17:00:09.005Z,9.00
2022-12-24T17:02:35.803Z,9.20
2022-12-24T17:05:02.531Z,9.20
2022-12-24T17:07:29.025Z,9.10
2022-12-24T17:09:55.791Z,8.90
2022-12-24T17:12:22.354Z,8.90
2022-12-24T17:14:48.868Z,8.90
2022-12-24T17:17:27.725Z,8.80
2022-12-24T17:19:57.572Z,8.40
2022-12-24T17:22:24.580Z,8.50
2022-12-24T17:24:51.118Z,8.30
2022-12-24T17:27:17.663Z,8.20
2022-12-24T17:29:44.314Z,8.40
2022-12-24T17:32:10.859Z,8.30
2022-12-24T17:34:40.393Z,8.40
2022-12-24T17:37:06.844Z,8.80
2022-12-24T17:39:33.386Z,8.90
2022-12-24T17:42:00.115Z,8.90
2022-12-24T17:44:26.736Z,8.70
2022-12-24T17:46:53.336Z,8.70
2022-12-24T17:49:19.873Z,8.40
2022-12-24T17:51:49.279Z,8.50
2022-12-24T17:54:15.907Z,8.50
2022-12-24T17:56:44.921Z,8.70
2022-12-24T17:59:11.520Z,8.70
2022-12-24T18:01:38.165Z,8.80
2022-12-24T18:04:05.181Z,8.70
2022-12-24T18:06:31.887Z,8.80
2022-12-24T18:08:58.413Z,8.80
2022-12-24T18:11:28.088Z,8.90
2022-12-24T18:13:55.572Z,8.70
2022-12-24T18:16:25.396Z,8.80
2022-12-24T18:18:52.852Z,9.10
2022-12-24T18:21:21.138Z,9.10
2022-12-24T18:23:48.765Z,8.90
2022-12-24T18:26:16.857Z,8.90
2022-12-24T18:28:44.129Z,8.70
2022-12-24T18:31:16.531Z,8.90
2022-12-24T18:33:44.022Z,9.00
2022-12-24T18:36:11.052Z,9.10
2022-12-24T18:38:38.180Z,9.40
2022-12-24T18:41:24.530Z,9.50
2022-12-24T18:43:51.556Z,9.40
2022-12-24T18:46:21.384Z,9.40
2022-12-24T18:48:48.305Z,9.30
2022-12-24T18:51:15.605Z,9.30
2022-12-24T18:53:42.741Z,9.00
2022-12-24T18:56:18.470Z,8.90
2022-12-24T18:58:45.029Z,8.70
2022-12-24T19:01:20.092Z,8.60
2022-12-24T19:03:47.429Z,8.60
2022-12-24T19:06:14.058Z,8.70
2022-12-24T19:08:59.187Z,8.60
2022-12-24T19:11:28.451Z,8.60
2022-12-24T19:13:55.245Z,8.80
2022-12-24T19:16:22.154Z,8.50
2022-12-24T19:18:48.969Z,8.80
2022-12-24T19:21:17.677Z,8.80
2022-12-24T19:23:45.105Z,8.90
2022-12-24T19:26:12.326Z,8.80
2022-12-24T19:28:38.859Z,8.60
2022-12-24T19:31:10.978Z,8.70
2022-12-24T19:33:51.520Z,8.90
2022-12-24T19:36:20.830Z,9.10
2022-12-24T19:38:47.375Z,9.00
2022-12-24T19:41:30.298Z,8.70
2022-12-24T19:44:01.623Z,8.70
2022-12-24T19:46:31.685Z,9.00
2022-12-24T19:49:00.958Z,8.90
2022-12-24T19:51:28.817Z,8.80
2022-12-24T19:53:56.860Z,8.70
2022-12-24T19:56:25.531Z,8.90
2022-12-24T19:58:52.099Z,8.80
2022-12-24T20:01:21.427Z,8.30
2022-12-24T20:03:49.260Z,8.10
2022-12-24T20:06:17.586Z,8.00
2022-12-24T20:08:44.595Z,8.00
2022-12-24T20:11:13.288Z,8.10
2022-12-24T20:13:40.397Z,8.10
2022-12-24T20:16:10.140Z,8.10
2022-12-24T20:18:36.793Z,8.00
2022-12-24T20:21:06.611Z,7.80
2022-12-24T20:23:33.619Z,7.70
2022-12-24T20:26:01.641Z,7.60
2022-12-24T20:28:29.805Z,7.60
2022-12-24T20:30:56.610Z,7.60
2022-12-24T20:33:23.453Z,7.50
2022-12-24T20:35:50.098Z,7.50
2022-12-24T20:38:16.739Z,7.60
2022-12-24T20:40:45.113Z,7.70
2022-12-24T20:43:12.078Z,7.80
2022-12-24T20:45:38.941Z,7.90
2022-12-24T20:48:06.384Z,7.80
2022-12-24T20:50:33.006Z,7.80
2022-12-24T20:52:59.592Z,7.50
2022-12-24T20:55:26.179Z,7.60
2022-12-24T20:57:52.695Z,7.60
2022-12-24T21:00:19.814Z,7.70
2022-12-24T21:02:46.588Z,7.80
2022-12-24T21:05:13.341Z,7.60
2022-12-24T21:07:40.596Z,7.50
2022-12-24T21:10:07.971Z,7.50
2022-12-24T21:12:50.113Z,7.60
2022-12-24T21:15:21.280Z,8.00
2022-12-24T21:17:49.452Z,8.00
2022-12-24T21:20:17.407Z,8.00
2022-12-24T21:22:43.972Z,7.90
2022-12-24T21:25:11.683Z,8.20
2022-12-24T21:27:38.880Z,8.20
2022-12-24T21:30:08.050Z,8.40
2022-12-24T21:32:37.885Z,8.20
2022-12-24T21:35:04.805Z,8.10
2022-12-24T21:37:31.336Z,8.00
2022-12-24T21:39:57.839Z,8.10
2022-12-24T21:42:25.347Z,7.90
2022-12-24T21:44:51.881Z,8.00
2022-12-24T21:47:18.448Z,8.00
2022-12-24T21:50:03.715Z,8.00
2022-12-24T21:52:30.259Z,7.80
2022-12-24T21:54:56.758Z,7.90
2022-12-24T21:57:41.848Z,7.80
2022-12-24T22:00:26.592Z,7.80
2022-12-24T22:02:56.648Z,7.80
2022-12-24T22:05:25.909Z,7.80
2022-12-24T22:08:12.173Z,7.80
2022-12-24T22:10:58.837Z,7.70
2022-12-24T22:13:25.764Z,7.70
2022-12-24T22:15:53.683Z,7.90
2022-12-24T22:18:22.889Z,8.00
2022-12-24T22:20:49.751Z,8.00
2022-12-24T22:23:17.200Z,8.00
2022-12-24T22:25:44.172Z,8.20
2022-12-24T22:28:11.060Z,8.10
2022-12-24T22:30:42.061Z,7.90
2022-12-24T22:33:09.894Z,7.90
2022-12-24T22:35:40.408Z,7.90
2022-12-24T22:38:08.840Z,7.80
2022-12-24T22:40:35.418Z,8.00
2022-12-24T22:43:01.901Z,8.10
2022-12-24T22:45:28.473Z,8.20
2022-12-24T22:47:55.213Z,8.10
2022-12-24T22:50:23.249Z,8.20
2022-12-24T22:52:49.793Z,8.00
2022-12-24T22:55:16.466Z,7.90
2022-12-24T22:57:42.994Z,8.10
2022-12-24T23:00:15.313Z,8.10
2022-12-24T23:02:42.212Z,8.00
2022-12-24T23:05:13.847Z,8.10
2022-12-24T23:07:40.497Z,8.00
2022-12-24T23:10:07.726Z,7.90
2022-12-24T23:12:52.885Z,7.90
2022-12-24T23:15:19.390Z,7.90
2022-12-24T23:17:48.802Z,7.90
2022-12-24T23:20:15.672Z,8.00
2022-12-24T23:22:42.168Z,8.00
2022-12-24T23:25:09.166Z,8.20
2022-12-24T23:27:35.656Z,8.20
2022-12-24T23:30:02.200Z,8.10
2022-12-24T23:32:28.778Z,8.10
2022-12-24T23:34:55.297Z,8.10
2022-12-24T23:37:21.870Z,8.20
2022-12-24T23:39:48.441Z,8.40
2022-12-24T23:42:14.966Z,8.10
2022-12-24T23:44:41.475Z,8.10
2022-12-24T23:47:08.303Z,8.00
2022-12-24T23:49:35.269Z,8.10
2022-12-24T23:52:01.841Z,8.00
2022-12-24T23:54:28.353Z,7.90
2022-12-24T23:56:54.906Z,7.80
2022-12-24T23:59:21.443Z,7.70
